Billings, MT

7:11 PM MDT on August 21, 2014 (GMT -0600)
Billings Logan International | Change Station
CLOSE
Current Station
Airport
Location: Billings,
Elevation: 3570 ft
Nearby Weather Stations

Elev 3570 ft 45.81 °N, 108.54 °W | Updated 18 minutes ago

Mostly Cloudy
Mostly Cloudy
60 °F
Feels Like 60 °F
N
7
Wind Variable Wind from NNE

Today
High -- | Low -- °F
--% Chance of Precip.
Yesterday
High -- | Low -- °F
Precip. -- in
6:21 AM 8:11 PM
Waning Crescent, 11% visible
Pressure 30.04 in
Visibility 10.0 miles
Clouds Few 900 ft
Scattered Clouds 8000 ft
Mostly Cloudy 9500 ft
Dew Point 57 °F
Humidity 90%
Rainfall 0.37 in
Snow Depth Not available.
UV 0 out of 12
Pollen 4.30 out of 12
Air Quality Not available.
Flu Activity Not available.
METAR KBIL 220053Z 03006KT 10SM FEW009 SCT080 BKN095 16/14 A3009 RMK AO2 RAE52 SLP173 CB DSNT SE-SW VCSH N-SW P0010 T01560139 $

More Conditions Fewer Conditions

Pressure 30.04 in
Visibility 10.0 miles
Clouds Few 900 ft
Scattered Clouds 8000 ft
Mostly Cloudy 9500 ft
Dew Point 57 °F
Humidity 90%
Rainfall 0.37 in
Snow Depth Not available.
UV 0 out of 12
Pollen 4.30 out of 12
Air Quality Not available.
Flu Activity Not available.
METAR KBIL 220053Z 03006KT 10SM FEW009 SCT080 BKN095 16/14 A3009 RMK AO2 RAE52 SLP173 CB DSNT SE-SW VCSH N-SW P0010 T01560139 $

More Conditions Fewer Conditions

10-Day Weather Forecast

Almanac

Astronomy

Aug. 21, 2014 Rise Set
Actual Time 6:21 AM MDT 8:11 PM MDT
Civil Twilight 5:49 AM MDT 8:43 PM MDT
Nautical Twilight 5:10 AM MDT 9:22 PM MDT
Astronomical Twilight 4:28 AM MDT 10:04 PM MDT
Moon 2:49 AM MDT (8/21) 5:47 PM MDT (8/21)
Length of Visible Light 14h 53m
Length of Day
13h 50m
Tomorrow will be 2m 59s shorter.
Waning Crescent, 11% of the Moon is Illuminated
Today
Waning Crescent
Aug 25
New
Sep 2
First Quarter
Sep 8
Full
Sep 15
Last Quarter

Today's Extremes

State Highs State Lows

Community

WunderPhotos

Upload Photos

1,746,098 photos uploaded!

Nearby

Snow Depth

Station Depth Elevation
Cole Creek 0 in 7850 ft
Burnt Mountain 0 in 5880 ft
Crystal Lake 0 in 6050 ft
White Mill 2 in 8700 ft
Northeast Entrance 0 in 7350 ft

Earthquake Activity

City Distance Mag. Time & Date
No recent earthquake activity has been reported nearby.
Minimum magnitude displayed is 2.5.

Coastal Water Temperatures

Place Temperature
No Stations Reporting

Nearby Weather Stations